sensor_id;sensor_type;location;lat;lon;timestamp;temperature;humidity
5723;DHT22;2886;49.722;8.612;2024-02-21T00:01:53;8.90;99.90
5723;DHT22;2886;49.722;8.612;2024-02-21T00:04:18;8.90;99.90
5723;DHT22;2886;49.722;8.612;2024-02-21T00:06:44;8.80;99.90
5723;DHT22;2886;49.722;8.612;2024-02-21T00:09:10;8.80;99.90
5723;DHT22;2886;49.722;8.612;2024-02-21T00:11:36;8.80;99.90
5723;DHT22;2886;49.722;8.612;2024-02-21T00:14:01;8.80;99.90
5723;DHT22;2886;49.722;8.612;2024-02-21T00:16:27;8.80;99.90
5723;DHT22;2886;49.722;8.612;2024-02-21T00:18:52;8.80;99.90
5723;DHT22;2886;49.722;8.612;2024-02-21T00:21:18;8.70;99.90
5723;DHT22;2886;49.722;8.612;2024-02-21T00:23:46;8.80;99.90
5723;DHT22;2886;49.722;8.612;2024-02-21T00:26:13;8.80;99.90
5723;DHT22;2886;49.722;8.612;2024-02-21T00:28:41;8.70;99.90
5723;DHT22;2886;49.722;8.612;2024-02-21T00:31:06;8.70;99.90
5723;DHT22;2886;49.722;8.612;2024-02-21T00:33:32;8.70;99.90
5723;DHT22;2886;49.722;8.612;2024-02-21T00:35:58;8.80;99.90
5723;DHT22;2886;49.722;8.612;2024-02-21T00:38:23;8.70;99.90
5723;DHT22;2886;49.722;8.612;2024-02-21T00:40:49;8.70;99.90
5723;DHT22;2886;49.722;8.612;2024-02-21T00:43:14;8.70;99.90
5723;DHT22;2886;49.722;8.612;2024-02-21T00:45:40;8.70;99.90
5723;DHT22;2886;49.722;8.612;2024-02-21T00:48:06;8.60;99.90
5723;DHT22;2886;49.722;8.612;2024-02-21T00:50:31;8.70;99.90
5723;DHT22;2886;49.722;8.612;2024-02-21T00:52:57;8.60;99.90
5723;DHT22;2886;49.722;8.612;2024-02-21T00:55:23;8.60;99.90
5723;DHT22;2886;49.722;8.612;2024-02-21T00:57:49;8.60;99.90
5723;DHT22;2886;49.722;8.612;2024-02-21T01:00:14;8.60;99.90
5723;DHT22;2886;49.722;8.612;2024-02-21T01:02:40;8.60;99.90
5723;DHT22;2886;49.722;8.612;2024-02-21T01:05:06;8.60;99.90
5723;DHT22;2886;49.722;8.612;2024-02-21T01:07:32;8.60;99.90
5723;DHT22;2886;49.722;8.612;2024-02-21T01:09:57;8.60;99.90
5723;DHT22;2886;49.722;8.612;2024-02-21T01:12:23;8.50;99.90
5723;DHT22;2886;49.722;8.612;2024-02-21T01:14:49;8.50;99.90
5723;DHT22;2886;49.722;8.612;2024-02-21T01:17:15;8.50;99.90
5723;DHT22;2886;49.722;8.612;2024-02-21T01:19:40;8.50;99.90
5723;DHT22;2886;49.722;8.612;2024-02-21T01:22:06;8.50;99.90
5723;DHT22;2886;49.722;8.612;2024-02-21T01:24:32;8.50;99.90
5723;DHT22;2886;49.722;8.612;2024-02-21T01:26:58;8.50;99.90
5723;DHT22;2886;49.722;8.612;2024-02-21T01:29:23;8.40;99.90
5723;DHT22;2886;49.722;8.612;2024-02-21T01:31:50;8.40;99.90
5723;DHT22;2886;49.722;8.612;2024-02-21T01:34:15;8.40;99.90
5723;DHT22;2886;49.722;8.612;2024-02-21T01:36:41;8.40;99.90
5723;DHT22;2886;49.722;8.612;2024-02-21T01:39:07;8.30;99.90
5723;DHT22;2886;49.722;8.612;2024-02-21T01:41:33;8.40;99.90
5723;DHT22;2886;49.722;8.612;2024-02-21T01:43:58;8.40;99.90
5723;DHT22;2886;49.722;8.612;2024-02-21T01:46:24;8.40;99.90
5723;DHT22;2886;49.722;8.612;2024-02-21T01:48:55;8.30;99.90
5723;DHT22;2886;49.722;8.612;2024-02-21T01:51:21;8.30;99.90
5723;DHT22;2886;49.722;8.612;2024-02-21T01:53:47;8.40;99.90
5723;DHT22;2886;49.722;8.612;2024-02-21T01:56:12;8.40;99.90
5723;DHT22;2886;49.722;8.612;2024-02-21T01:58:40;8.40;99.90
5723;DHT22;2886;49.722;8.612;2024-02-21T02:01:07;8.40;99.90
5723;DHT22;2886;49.722;8.612;2024-02-21T02:03:33;8.40;99.90
5723;DHT22;2886;49.722;8.612;2024-02-21T02:05:59;8.40;99.90
5723;DHT22;2886;49.722;8.612;2024-02-21T02:08:25;8.40;99.90
5723;DHT22;2886;49.722;8.612;2024-02-21T02:10:51;8.40;99.90
5723;DHT22;2886;49.722;8.612;2024-02-21T02:13:17;8.50;99.90
5723;DHT22;2886;49.722;8.612;2024-02-21T02:15:47;8.50;99.90
5723;DHT22;2886;49.722;8.612;2024-02-21T02:18:14;8.50;99.90
5723;DHT22;2886;49.722;8.612;2024-02-21T02:20:40;8.50;99.90
5723;DHT22;2886;49.722;8.612;2024-02-21T02:26:11;8.50;99.90
5723;DHT22;2886;49.722;8.612;2024-02-21T02:28:37;8.50;99.90
5723;DHT22;2886;49.722;8.612;2024-02-21T02:31:03;8.50;99.90
5723;DHT22;2886;49.722;8.612;2024-02-21T02:33:30;8.50;99.90
5723;DHT22;2886;49.722;8.612;2024-02-21T02:35:56;8.40;99.90
5723;DHT22;2886;49.722;8.612;2024-02-21T02:38:23;8.40;99.90
5723;DHT22;2886;49.722;8.612;2024-02-21T02:40:48;8.30;99.90
5723;DHT22;2886;49.722;8.612;2024-02-21T02:43:14;8.30;99.90
5723;DHT22;2886;49.722;8.612;2024-02-21T02:45:39;8.30;99.90
5723;DHT22;2886;49.722;8.612;2024-02-21T02:48:05;8.20;99.90
5723;DHT22;2886;49.722;8.612;2024-02-21T02:50:31;8.20;99.90
5723;DHT22;2886;49.722;8.612;2024-02-21T02:52:57;8.20;99.90
5723;DHT22;2886;49.722;8.612;2024-02-21T02:55:23;8.10;99.90
5723;DHT22;2886;49.722;8.612;2024-02-21T02:57:48;8.10;99.90
5723;DHT22;2886;49.722;8.612;2024-02-21T03:00:14;8.20;99.90
5723;DHT22;2886;49.722;8.612;2024-02-21T03:02:42;8.10;99.90
5723;DHT22;2886;49.722;8.612;2024-02-21T03:05:16;8.20;99.90
5723;DHT22;2886;49.722;8.612;2024-02-21T03:07:42;8.20;99.90
5723;DHT22;2886;49.722;8.612;2024-02-21T03:10:09;8.30;99.90
5723;DHT22;2886;49.722;8.612;2024-02-21T03:12:34;8.30;99.90
5723;DHT22;2886;49.722;8.612;2024-02-21T03:15:00;8.30;99.90
5723;DHT22;2886;49.722;8.612;2024-02-21T03:17:26;8.30;99.90
5723;DHT22;2886;49.722;8.612;2024-02-21T03:19:54;8.30;99.90
5723;DHT22;2886;49.722;8.612;2024-02-21T03:22:25;8.30;99.90
5723;DHT22;2886;49.722;8.612;2024-02-21T03:24:56;8.30;99.90
5723;DHT22;2886;49.722;8.612;2024-02-21T03:27:22;8.30;99.90
5723;DHT22;2886;49.722;8.612;2024-02-21T03:29:48;8.30;99.90
5723;DHT22;2886;49.722;8.612;2024-02-21T03:32:13;8.30;99.90
5723;DHT22;2886;49.722;8.612;2024-02-21T03:34:40;8.30;99.90
5723;DHT22;2886;49.722;8.612;2024-02-21T03:37:05;8.20;99.90
5723;DHT22;2886;49.722;8.612;2024-02-21T03:39:31;8.20;99.90
5723;DHT22;2886;49.722;8.612;2024-02-21T03:41:58;8.30;99.90
5723;DHT22;2886;49.722;8.612;2024-02-21T03:44:26;8.30;99.90
5723;DHT22;2886;49.722;8.612;2024-02-21T03:46:52;8.30;99.90
5723;DHT22;2886;49.722;8.612;2024-02-21T03:49:19;8.30;99.90
5723;DHT22;2886;49.722;8.612;2024-02-21T03:51:44;8.30;99.90
5723;DHT22;2886;49.722;8.612;2024-02-21T03:54:10;8.30;99.90
5723;DHT22;2886;49.722;8.612;2024-02-21T03:56:38;8.30;99.90
5723;DHT22;2886;49.722;8.612;2024-02-21T03:59:06;8.30;99.90
5723;DHT22;2886;49.722;8.612;2024-02-21T04:01:32;8.30;99.90
5723;DHT22;2886;49.722;8.612;2024-02-21T04:03:57;8.30;99.90
5723;DHT22;2886;49.722;8.612;2024-02-21T04:06:23;8.30;99.90
5723;DHT22;2886;49.722;8.612;2024-02-21T04:08:48;8.30;99.90
5723;DHT22;2886;49.722;8.612;2024-02-21T04:11:14;8.40;99.90
5723;DHT22;2886;49.722;8.612;2024-02-21T04:13:39;8.30;99.90
5723;DHT22;2886;49.722;8.612;2024-02-21T04:16:05;8.40;99.90
5723;DHT22;2886;49.722;8.612;2024-02-21T04:18:31;8.40;99.90
5723;DHT22;2886;49.722;8.612;2024-02-21T04:20:57;8.40;99.90
5723;DHT22;2886;49.722;8.612;2024-02-21T04:23:22;8.30;99.90
5723;DHT22;2886;49.722;8.612;2024-02-21T04:25:48;8.30;99.90
5723;DHT22;2886;49.722;8.612;2024-02-21T04:28:13;8.30;99.90
5723;DHT22;2886;49.722;8.612;2024-02-21T04:30:39;8.30;99.90
5723;DHT22;2886;49.722;8.612;2024-02-21T04:33:05;8.30;99.90
5723;DHT22;2886;49.722;8.612;2024-02-21T04:35:31;8.30;99.90
5723;DHT22;2886;49.722;8.612;2024-02-21T04:37:56;8.30;99.90
5723;DHT22;2886;49.722;8.612;2024-02-21T04:40:22;8.30;99.90
5723;DHT22;2886;49.722;8.612;2024-02-21T04:42:48;8.30;99.90
5723;DHT22;2886;49.722;8.612;2024-02-21T04:45:14;8.30;99.90
5723;DHT22;2886;49.722;8.612;2024-02-21T04:47:39;8.30;99.90
5723;DHT22;2886;49.722;8.612;2024-02-21T04:50:05;8.30;99.90
5723;DHT22;2886;49.722;8.612;2024-02-21T04:52:31;8.40;99.90
5723;DHT22;2886;49.722;8.612;2024-02-21T04:54:57;8.40;99.90
5723;DHT22;2886;49.722;8.612;2024-02-21T04:57:22;8.40;99.90
5723;DHT22;2886;49.722;8.612;2024-02-21T04:59:48;8.30;99.90
5723;DHT22;2886;49.722;8.612;2024-02-21T05:02:15;8.30;99.90
5723;DHT22;2886;49.722;8.612;2024-02-21T05:04:42;8.30;99.90
5723;DHT22;2886;49.722;8.612;2024-02-21T05:07:07;8.30;99.90
5723;DHT22;2886;49.722;8.612;2024-02-21T05:09:33;8.20;99.90
5723;DHT22;2886;49.722;8.612;2024-02-21T05:11:59;8.20;99.90
5723;DHT22;2886;49.722;8.612;2024-02-21T05:14:25;8.20;99.90
5723;DHT22;2886;49.722;8.612;2024-02-21T05:16:52;8.20;99.90
5723;DHT22;2886;49.722;8.612;2024-02-21T05:19:17;8.20;99.90
5723;DHT22;2886;49.722;8.612;2024-02-21T05:21:43;8.20;99.90
5723;DHT22;2886;49.722;8.612;2024-02-21T05:24:09;8.20;99.90
5723;DHT22;2886;49.722;8.612;2024-02-21T05:26:34;8.20;99.90
5723;DHT22;2886;49.722;8.612;2024-02-21T05:29:00;8.20;99.90
5723;DHT22;2886;49.722;8.612;2024-02-21T05:31:26;8.20;99.90
5723;DHT22;2886;49.722;8.612;2024-02-21T05:33:51;8.10;99.90
5723;DHT22;2886;49.722;8.612;2024-02-21T05:36:17;8.10;99.90
5723;DHT22;2886;49.722;8.612;2024-02-21T05:38:43;8.10;99.90
5723;DHT22;2886;49.722;8.612;2024-02-21T05:41:08;8.10;99.90
5723;DHT22;2886;49.722;8.612;2024-02-21T05:43:34;8.10;99.90
5723;DHT22;2886;49.722;8.612;2024-02-21T05:45:59;8.10;99.90
5723;DHT22;2886;49.722;8.612;2024-02-21T05:48:25;8.10;99.90
5723;DHT22;2886;49.722;8.612;2024-02-21T05:50:50;8.10;99.90
5723;DHT22;2886;49.722;8.612;2024-02-21T05:53:16;8.10;99.90
5723;DHT22;2886;49.722;8.612;2024-02-21T05:55:42;8.00;99.90
5723;DHT22;2886;49.722;8.612;2024-02-21T05:58:07;7.90;99.90
5723;DHT22;2886;49.722;8.612;2024-02-21T06:00:37;7.90;99.90
5723;DHT22;2886;49.722;8.612;2024-02-21T06:03:03;7.80;99.90
5723;DHT22;2886;49.722;8.612;2024-02-21T06:05:28;7.70;99.90
5723;DHT22;2886;49.722;8.612;2024-02-21T06:07:54;7.60;99.90
5723;DHT22;2886;49.722;8.612;2024-02-21T06:10:20;7.60;99.90
5723;DHT22;2886;49.722;8.612;2024-02-21T06:12:45;7.60;99.90
5723;DHT22;2886;49.722;8.612;2024-02-21T06:15:11;7.60;99.90
5723;DHT22;2886;49.722;8.612;2024-02-21T06:17:36;7.60;99.90
5723;DHT22;2886;49.722;8.612;2024-02-21T06:20:02;7.60;99.90
5723;DHT22;2886;49.722;8.612;2024-02-21T06:22:30;7.60;99.90
5723;DHT22;2886;49.722;8.612;2024-02-21T06:24:56;7.60;99.90
5723;DHT22;2886;49.722;8.612;2024-02-21T06:27:21;7.60;99.90
5723;DHT22;2886;49.722;8.612;2024-02-21T06:29:47;7.60;99.90
5723;DHT22;2886;49.722;8.612;2024-02-21T06:32:12;7.50;99.90
5723;DHT22;2886;49.722;8.612;2024-02-21T06:34:38;7.60;99.90
5723;DHT22;2886;49.722;8.612;2024-02-21T06:37:04;7.70;99.90
5723;DHT22;2886;49.722;8.612;2024-02-21T06:39:29;7.60;99.90
5723;DHT22;2886;49.722;8.612;2024-02-21T06:41:55;7.60;99.90
5723;DHT22;2886;49.722;8.612;2024-02-21T06:44:21;7.70;99.90
5723;DHT22;2886;49.722;8.612;2024-02-21T06:46:47;7.60;99.90
5723;DHT22;2886;49.722;8.612;2024-02-21T06:49:12;7.60;99.90
5723;DHT22;2886;49.722;8.612;2024-02-21T06:51:44;7.60;99.90
5723;DHT22;2886;49.722;8.612;2024-02-21T06:54:10;7.50;99.90
5723;DHT22;2886;49.722;8.612;2024-02-21T06:56:37;7.50;99.90
5723;DHT22;2886;49.722;8.612;2024-02-21T06:59:03;7.50;99.90
5723;DHT22;2886;49.722;8.612;2024-02-21T07:01:30;7.50;99.90
5723;DHT22;2886;49.722;8.612;2024-02-21T07:03:56;7.50;99.90
5723;DHT22;2886;49.722;8.612;2024-02-21T07:06:22;7.50;99.90
5723;DHT22;2886;49.722;8.612;2024-02-21T07:08:48;7.60;99.90
5723;DHT22;2886;49.722;8.612;2024-02-21T07:11:13;7.60;99.90
5723;DHT22;2886;49.722;8.612;2024-02-21T07:13:39;7.70;99.90
5723;DHT22;2886;49.722;8.612;2024-02-21T07:16:05;7.70;99.90
5723;DHT22;2886;49.722;8.612;2024-02-21T07:18:31;7.70;99.90
5723;DHT22;2886;49.722;8.612;2024-02-21T07:20:56;7.60;99.90
5723;DHT22;2886;49.722;8.612;2024-02-21T07:23:22;7.60;99.90
5723;DHT22;2886;49.722;8.612;2024-02-21T07:25:48;7.60;99.90
5723;DHT22;2886;49.722;8.612;2024-02-21T07:28:13;7.60;99.90
5723;DHT22;2886;49.722;8.612;2024-02-21T07:30:40;7.60;99.90
5723;DHT22;2886;49.722;8.612;2024-02-21T07:33:06;7.70;99.90
5723;DHT22;2886;49.722;8.612;2024-02-21T07:35:32;7.70;99.90
5723;DHT22;2886;49.722;8.612;2024-02-21T07:37:58;7.70;99.90
5723;DHT22;2886;49.722;8.612;2024-02-21T07:40:24;7.80;99.90
5723;DHT22;2886;49.722;8.612;2024-02-21T07:42:49;7.80;99.90
5723;DHT22;2886;49.722;8.612;2024-02-21T07:45:15;7.90;99.90
5723;DHT22;2886;49.722;8.612;2024-02-21T07:47:41;8.00;99.90
5723;DHT22;2886;49.722;8.612;2024-02-21T07:50:07;8.20;99.90
5723;DHT22;2886;49.722;8.612;2024-02-21T07:52:33;8.30;99.90
5723;DHT22;2886;49.722;8.612;2024-02-21T07:54:58;8.40;99.90
5723;DHT22;2886;49.722;8.612;2024-02-21T07:57:24;8.50;99.90
5723;DHT22;2886;49.722;8.612;2024-02-21T07:59:50;8.50;99.90
5723;DHT22;2886;49.722;8.612;2024-02-21T08:02:16;8.60;99.90
5723;DHT22;2886;49.722;8.612;2024-02-21T08:04:42;8.60;99.90
5723;DHT22;2886;49.722;8.612;2024-02-21T08:07:07;8.70;99.90
5723;DHT22;2886;49.722;8.612;2024-02-21T08:09:33;8.70;99.90
5723;DHT22;2886;49.722;8.612;2024-02-21T08:11:59;8.70;99.90
5723;DHT22;2886;49.722;8.612;2024-02-21T08:14:25;8.80;99.90
5723;DHT22;2886;49.722;8.612;2024-02-21T08:16:51;8.80;99.90
5723;DHT22;2886;49.722;8.612;2024-02-21T08:19:19;8.90;99.90
5723;DHT22;2886;49.722;8.612;2024-02-21T08:21:45;8.90;99.90
5723;DHT22;2886;49.722;8.612;2024-02-21T08:24:14;8.90;99.90
5723;DHT22;2886;49.722;8.612;2024-02-21T08:26:41;8.90;99.90
5723;DHT22;2886;49.722;8.612;2024-02-21T08:29:07;8.90;99.90
5723;DHT22;2886;49.722;8.612;2024-02-21T08:31:32;9.00;99.90
5723;DHT22;2886;49.722;8.612;2024-02-21T08:33:59;9.00;99.90
5723;DHT22;2886;49.722;8.612;2024-02-21T08:36:31;9.00;99.90
5723;DHT22;2886;49.722;8.612;2024-02-21T08:38:58;9.00;99.90
5723;DHT22;2886;49.722;8.612;2024-02-21T08:41:24;8.90;99.90
5723;DHT22;2886;49.722;8.612;2024-02-21T08:43:54;8.90;99.90
5723;DHT22;2886;49.722;8.612;2024-02-21T08:46:20;9.00;99.90
5723;DHT22;2886;49.722;8.612;2024-02-21T08:48:46;9.00;99.90
5723;DHT22;2886;49.722;8.612;2024-02-21T08:51:12;9.10;99.90
5723;DHT22;2886;49.722;8.612;2024-02-21T08:53:38;9.00;99.90
5723;DHT22;2886;49.722;8.612;2024-02-21T08:56:04;9.00;99.90
5723;DHT22;2886;49.722;8.612;2024-02-21T08:58:30;9.00;99.90
5723;DHT22;2886;49.722;8.612;2024-02-21T09:00:56;9.10;99.90
5723;DHT22;2886;49.722;8.612;2024-02-21T09:03:22;9.10;99.90
5723;DHT22;2886;49.722;8.612;2024-02-21T09:05:48;9.10;99.90
5723;DHT22;2886;49.722;8.612;2024-02-21T09:08:13;9.10;99.90
5723;DHT22;2886;49.722;8.612;2024-02-21T09:10:42;9.10;99.90
5723;DHT22;2886;49.722;8.612;2024-02-21T09:13:07;9.10;99.90
5723;DHT22;2886;49.722;8.612;2024-02-21T09:15:34;9.10;99.90
5723;DHT22;2886;49.722;8.612;2024-02-21T09:18:00;9.30;99.90
5723;DHT22;2886;49.722;8.612;2024-02-21T09:20:25;9.40;99.90
5723;DHT22;2886;49.722;8.612;2024-02-21T09:22:51;9.50;99.90
5723;DHT22;2886;49.722;8.612;2024-02-21T09:25:17;9.70;99.90
5723;DHT22;2886;49.722;8.612;2024-02-21T09:27:44;9.90;99.90
5723;DHT22;2886;49.722;8.612;2024-02-21T09:30:10;10.10;99.90
5723;DHT22;2886;49.722;8.612;2024-02-21T09:32:36;10.30;99.90
5723;DHT22;2886;49.722;8.612;2024-02-21T09:35:03;10.40;99.90
5723;DHT22;2886;49.722;8.612;2024-02-21T09:37:28;10.40;99.90
5723;DHT22;2886;49.722;8.612;2024-02-21T09:39:54;10.50;99.90
5723;DHT22;2886;49.722;8.612;2024-02-21T09:42:29;10.60;99.90
5723;DHT22;2886;49.722;8.612;2024-02-21T09:45:00;10.60;99.90
5723;DHT22;2886;49.722;8.612;2024-02-21T09:47:37;10.70;99.90
5723;DHT22;2886;49.722;8.612;2024-02-21T09:50:05;10.80;99.90
5723;DHT22;2886;49.722;8.612;2024-02-21T09:52:32;10.90;99.90
5723;DHT22;2886;49.722;8.612;2024-02-21T09:55:01;10.90;99.90
5723;DHT22;2886;49.722;8.612;2024-02-21T09:57:27;10.90;99.90
5723;DHT22;2886;49.722;8.612;2024-02-21T09:59:55;11.00;99.90
5723;DHT22;2886;49.722;8.612;2024-02-21T10:02:22;11.20;99.90
5723;DHT22;2886;49.722;8.612;2024-02-21T10:04:47;11.30;99.90
5723;DHT22;2886;49.722;8.612;2024-02-21T10:07:13;11.30;99.90
5723;DHT22;2886;49.722;8.612;2024-02-21T10:09:38;11.30;99.90
5723;DHT22;2886;49.722;8.612;2024-02-21T10:12:09;11.30;99.90
5723;DHT22;2886;49.722;8.612;2024-02-21T10:14:36;11.40;99.90
5723;DHT22;2886;49.722;8.612;2024-02-21T10:17:01;11.40;99.90
5723;DHT22;2886;49.722;8.612;2024-02-21T10:19:28;11.50;99.90
5723;DHT22;2886;49.722;8.612;2024-02-21T10:22:00;11.50;99.90
5723;DHT22;2886;49.722;8.612;2024-02-21T10:24:27;11.60;99.90
5723;DHT22;2886;49.722;8.612;2024-02-21T10:27:06;11.50;99.90
5723;DHT22;2886;49.722;8.612;2024-02-21T10:29:35;11.50;99.90
5723;DHT22;2886;49.722;8.612;2024-02-21T10:32:11;11.50;99.90
5723;DHT22;2886;49.722;8.612;2024-02-21T10:34:37;11.40;99.90
5723;DHT22;2886;49.722;8.612;2024-02-21T10:37:05;11.40;99.90
5723;DHT22;2886;49.722;8.612;2024-02-21T10:39:34;11.50;99.90
5723;DHT22;2886;49.722;8.612;2024-02-21T10:42:03;11.70;99.90
5723;DHT22;2886;49.722;8.612;2024-02-21T10:44:33;11.60;99.90
5723;DHT22;2886;49.722;8.612;2024-02-21T10:46:59;11.70;99.90
5723;DHT22;2886;49.722;8.612;2024-02-21T10:49:26;11.70;99.90
5723;DHT22;2886;49.722;8.612;2024-02-21T10:52:03;11.70;99.90
5723;DHT22;2886;49.722;8.612;2024-02-21T10:54:55;11.70;99.90
5723;DHT22;2886;49.722;8.612;2024-02-21T10:57:22;11.70;99.90
5723;DHT22;2886;49.722;8.612;2024-02-21T10:59:48;11.80;99.90
5723;DHT22;2886;49.722;8.612;2024-02-21T11:02:15;11.70;99.90
5723;DHT22;2886;49.722;8.612;2024-02-21T11:04:41;11.70;99.90
5723;DHT22;2886;49.722;8.612;2024-02-21T11:07:07;11.70;99.90
5723;DHT22;2886;49.722;8.612;2024-02-21T11:09:33;11.80;99.90
5723;DHT22;2886;49.722;8.612;2024-02-21T11:12:03;11.90;99.90
5723;DHT22;2886;49.722;8.612;2024-02-21T11:14:29;12.10;99.90
5723;DHT22;2886;49.722;8.612;2024-02-21T11:16:58;12.10;99.90
5723;DHT22;2886;49.722;8.612;2024-02-21T11:19:28;12.20;99.90
5723;DHT22;2886;49.722;8.612;2024-02-21T11:21:57;12.20;99.90
5723;DHT22;2886;49.722;8.612;2024-02-21T11:24:28;12.30;99.50
5723;DHT22;2886;49.722;8.612;2024-02-21T11:26:54;12.40;99.40
5723;DHT22;2886;49.722;8.612;2024-02-21T11:29:26;12.40;98.90
5723;DHT22;2886;49.722;8.612;2024-02-21T11:31:52;12.50;98.30
5723;DHT22;2886;49.722;8.612;2024-02-21T11:34:18;12.50;97.70
5723;DHT22;2886;49.722;8.612;2024-02-21T11:36:48;12.50;97.40
5723;DHT22;2886;49.722;8.612;2024-02-21T11:39:25;12.60;95.50
5723;DHT22;2886;49.722;8.612;2024-02-21T11:42:03;12.60;94.10
5723;DHT22;2886;49.722;8.612;2024-02-21T11:44:30;12.60;94.30
5723;DHT22;2886;49.722;8.612;2024-02-21T11:46:56;12.50;96.10
5723;DHT22;2886;49.722;8.612;2024-02-21T11:49:25;12.40;96.80
5723;DHT22;2886;49.722;8.612;2024-02-21T11:52:00;12.50;96.80
5723;DHT22;2886;49.722;8.612;2024-02-21T11:54:30;12.60;94.00
5723;DHT22;2886;49.722;8.612;2024-02-21T11:56:56;12.70;94.20
5723;DHT22;2886;49.722;8.612;2024-02-21T11:59:21;12.70;93.30
5723;DHT22;2886;49.722;8.612;2024-02-21T12:01:48;12.70;94.20
5723;DHT22;2886;49.722;8.612;2024-02-21T12:04:15;12.60;94.40
5723;DHT22;2886;49.722;8.612;2024-02-21T12:06:44;12.50;94.70
5723;DHT22;2886;49.722;8.612;2024-02-21T12:09:10;12.50;95.40
5723;DHT22;2886;49.722;8.612;2024-02-21T12:11:39;12.50;96.50
5723;DHT22;2886;49.722;8.612;2024-02-21T12:14:04;12.60;94.60
5723;DHT22;2886;49.722;8.612;2024-02-21T12:16:33;12.60;93.60
5723;DHT22;2886;49.722;8.612;2024-02-21T12:19:00;12.70;94.50
5723;DHT22;2886;49.722;8.612;2024-02-21T12:21:33;12.80;93.50
5723;DHT22;2886;49.722;8.612;2024-02-21T12:24:15;13.00;93.10
5723;DHT22;2886;49.722;8.612;2024-02-21T12:26:41;12.90;92.80
5723;DHT22;2886;49.722;8.612;2024-02-21T12:29:07;12.80;90.60
5723;DHT22;2886;49.722;8.612;2024-02-21T12:31:36;12.80;91.00
5723;DHT22;2886;49.722;8.612;2024-02-21T12:34:02;12.80;91.30
5723;DHT22;2886;49.722;8.612;2024-02-21T12:36:27;12.80;90.90
5723;DHT22;2886;49.722;8.612;2024-02-21T12:38:53;12.70;91.90
5723;DHT22;2886;49.722;8.612;2024-02-21T12:41:19;12.80;92.10
5723;DHT22;2886;49.722;8.612;2024-02-21T12:43:44;12.70;91.00
5723;DHT22;2886;49.722;8.612;2024-02-21T12:46:10;12.70;91.10
5723;DHT22;2886;49.722;8.612;2024-02-21T12:48:35;12.70;90.80
5723;DHT22;2886;49.722;8.612;2024-02-21T12:51:01;12.70;90.20
5723;DHT22;2886;49.722;8.612;2024-02-21T12:53:27;12.60;90.50
5723;DHT22;2886;49.722;8.612;2024-02-21T12:55:52;12.50;92.70
5723;DHT22;2886;49.722;8.612;2024-02-21T12:58:18;12.50;91.40
5723;DHT22;2886;49.722;8.612;2024-02-21T13:00:44;12.60;92.90
5723;DHT22;2886;49.722;8.612;2024-02-21T13:03:10;12.60;92.80
5723;DHT22;2886;49.722;8.612;2024-02-21T13:05:38;12.50;92.60
5723;DHT22;2886;49.722;8.612;2024-02-21T13:08:06;12.50;92.60
5723;DHT22;2886;49.722;8.612;2024-02-21T13:10:32;12.50;91.20
5723;DHT22;2886;49.722;8.612;2024-02-21T13:13:00;12.50;91.60
5723;DHT22;2886;49.722;8.612;2024-02-21T13:15:25;12.50;92.60
5723;DHT22;2886;49.722;8.612;2024-02-21T13:17:53;12.50;93.30
5723;DHT22;2886;49.722;8.612;2024-02-21T13:20:19;12.50;92.60
5723;DHT22;2886;49.722;8.612;2024-02-21T13:22:45;12.40;91.50
5723;DHT22;2886;49.722;8.612;2024-02-21T13:25:10;12.30;92.70
5723;DHT22;2886;49.722;8.612;2024-02-21T13:27:40;12.40;93.10
5723;DHT22;2886;49.722;8.612;2024-02-21T13:30:06;12.40;92.60
5723;DHT22;2886;49.722;8.612;2024-02-21T13:32:34;12.40;92.60
5723;DHT22;2886;49.722;8.612;2024-02-21T13:34:59;12.40;92.60
5723;DHT22;2886;49.722;8.612;2024-02-21T13:37:26;12.30;92.80
5723;DHT22;2886;49.722;8.612;2024-02-21T13:39:52;12.40;93.50
5723;DHT22;2886;49.722;8.612;2024-02-21T13:42:18;12.40;93.00
5723;DHT22;2886;49.722;8.612;2024-02-21T13:44:44;12.50;92.70
5723;DHT22;2886;49.722;8.612;2024-02-21T13:47:12;12.50;92.80
5723;DHT22;2886;49.722;8.612;2024-02-21T13:49:38;12.50;92.70
5723;DHT22;2886;49.722;8.612;2024-02-21T13:52:05;12.50;93.60
5723;DHT22;2886;49.722;8.612;2024-02-21T13:54:30;12.50;91.90
5723;DHT22;2886;49.722;8.612;2024-02-21T13:56:56;12.50;93.10
5723;DHT22;2886;49.722;8.612;2024-02-21T13:59:21;12.40;92.70
5723;DHT22;2886;49.722;8.612;2024-02-21T14:01:47;12.30;93.40
5723;DHT22;2886;49.722;8.612;2024-02-21T14:04:12;12.30;94.50
5723;DHT22;2886;49.722;8.612;2024-02-21T14:06:38;12.30;95.00
5723;DHT22;2886;49.722;8.612;2024-02-21T14:09:12;12.40;94.50
5723;DHT22;2886;49.722;8.612;2024-02-21T14:11:37;12.30;94.10
5723;DHT22;2886;49.722;8.612;2024-02-21T14:14:04;12.30;93.90
5723;DHT22;2886;49.722;8.612;2024-02-21T14:16:30;12.30;92.40
5723;DHT22;2886;49.722;8.612;2024-02-21T14:18:56;12.10;92.80
5723;DHT22;2886;49.722;8.612;2024-02-21T14:21:21;12.10;93.70
5723;DHT22;2886;49.722;8.612;2024-02-21T14:23:47;12.10;94.00
5723;DHT22;2886;49.722;8.612;2024-02-21T14:26:13;12.10;93.30
5723;DHT22;2886;49.722;8.612;2024-02-21T14:28:40;12.00;94.30
5723;DHT22;2886;49.722;8.612;2024-02-21T14:31:05;12.00;95.40
5723;DHT22;2886;49.722;8.612;2024-02-21T14:33:34;12.00;94.90
5723;DHT22;2886;49.722;8.612;2024-02-21T14:36:00;12.00;95.00
5723;DHT22;2886;49.722;8.612;2024-02-21T14:38:26;12.00;95.20
5723;DHT22;2886;49.722;8.612;2024-02-21T14:40:52;11.90;95.00
5723;DHT22;2886;49.722;8.612;2024-02-21T14:43:18;11.90;94.30
5723;DHT22;2886;49.722;8.612;2024-02-21T14:45:47;11.80;94.40
5723;DHT22;2886;49.722;8.612;2024-02-21T14:48:13;11.80;95.10
5723;DHT22;2886;49.722;8.612;2024-02-21T14:50:38;11.90;94.60
5723;DHT22;2886;49.722;8.612;2024-02-21T14:53:04;11.90;94.20
5723;DHT22;2886;49.722;8.612;2024-02-21T14:55:30;11.90;93.60
5723;DHT22;2886;49.722;8.612;2024-02-21T14:57:56;12.00;91.50
5723;DHT22;2886;49.722;8.612;2024-02-21T15:00:21;11.90;91.50
5723;DHT22;2886;49.722;8.612;2024-02-21T15:02:55;11.90;91.40
5723;DHT22;2886;49.722;8.612;2024-02-21T15:05:20;11.90;92.00
5723;DHT22;2886;49.722;8.612;2024-02-21T15:07:46;11.90;91.80
5723;DHT22;2886;49.722;8.612;2024-02-21T15:10:11;11.90;92.40
5723;DHT22;2886;49.722;8.612;2024-02-21T15:12:37;11.80;92.30
5723;DHT22;2886;49.722;8.612;2024-02-21T15:15:03;11.80;91.30
5723;DHT22;2886;49.722;8.612;2024-02-21T15:17:29;11.80;91.20
5723;DHT22;2886;49.722;8.612;2024-02-21T15:19:55;11.80;92.60
5723;DHT22;2886;49.722;8.612;2024-02-21T15:22:21;11.70;91.80
5723;DHT22;2886;49.722;8.612;2024-02-21T15:24:48;11.70;92.90
5723;DHT22;2886;49.722;8.612;2024-02-21T15:27:14;11.70;92.40
5723;DHT22;2886;49.722;8.612;2024-02-21T15:29:40;11.70;92.60
5723;DHT22;2886;49.722;8.612;2024-02-21T15:32:06;11.60;93.20
5723;DHT22;2886;49.722;8.612;2024-02-21T15:34:32;11.50;94.00
5723;DHT22;2886;49.722;8.612;2024-02-21T15:36:57;11.50;94.30
5723;DHT22;2886;49.722;8.612;2024-02-21T15:39:23;11.50;93.70
5723;DHT22;2886;49.722;8.612;2024-02-21T15:41:49;11.40;94.90
5723;DHT22;2886;49.722;8.612;2024-02-21T15:44:15;11.40;95.60
5723;DHT22;2886;49.722;8.612;2024-02-21T15:46:40;11.40;94.70
5723;DHT22;2886;49.722;8.612;2024-02-21T15:49:06;11.40;95.30
5723;DHT22;2886;49.722;8.612;2024-02-21T15:51:33;11.40;95.20
5723;DHT22;2886;49.722;8.612;2024-02-21T15:54:00;11.40;94.50
5723;DHT22;2886;49.722;8.612;2024-02-21T15:56:26;11.30;94.60
5723;DHT22;2886;49.722;8.612;2024-02-21T15:58:53;11.30;94.00
5723;DHT22;2886;49.722;8.612;2024-02-21T16:01:20;11.30;93.60
5723;DHT22;2886;49.722;8.612;2024-02-21T16:03:46;11.20;94.70
5723;DHT22;2886;49.722;8.612;2024-02-21T16:06:12;11.20;94.40
5723;DHT22;2886;49.722;8.612;2024-02-21T16:08:37;11.20;93.60
5723;DHT22;2886;49.722;8.612;2024-02-21T16:11:06;11.10;92.90